Terminal Aerodrome Forecast
Issued by NWS Duluth, MN

Home | Current Version | Previous Version | Text Only | Print | Product List | Glossary On
Versions: 1 2 3 4 5 6 7 8 9 10 11 12 13 14 15 16 17 18 19
000
FTUS43 KDLH 310539
TAFINL
TAF
KINL 310539Z 3106/0106 VRB03KT P6SM SKC
     FM310900 17003KT 5SM BR SCT006
     FM311400 19013KT P6SM SCT120 SCT250
     FM010000 19004KT P6SM SCT040 SCT120=

USA.gov is the U.S. government's official web portal to all federal, state and local government web resources and services.